Time;durP1;ratioP1;P1;durP2;ratioP2;P2;SDS_P1;SDS_P2;PMS_P1;PMS_P2;Temp;Humidity;BMP_temperature;BMP_pressure;BME280_temperature;BME280_humidity;BME280_pressure;Samples;Min_cycle;Max_cycle;Signal;HPM_P1;HPM_P2
2022/08/06 00:01:41;;;;;;;1999.90;999.90;;;19.90;85.50;;;;;;5014375;28;20037;-74
2022/08/06 00:04:07;;;;;;;1999.90;999.90;;;19.90;85.30;;;;;;5013883;28;20029;-69
2022/08/06 00:06:33;;;;;;;1999.90;999.90;;;19.80;85.10;;;;;;5014150;28;20097;-69
2022/08/06 00:08:59;;;;;;;1999.90;999.90;;;19.70;84.90;;;;;;5013905;28;20129;-69
2022/08/06 00:11:25;;;;;;;1999.90;999.90;;;19.70;85.10;;;;;;5013738;28;20395;-74
2022/08/06 00:13:50;;;;;;;1999.90;999.90;;;19.60;85.20;;;;;;5014019;28;20018;-74
2022/08/06 00:16:16;;;;;;;1999.90;999.90;;;19.60;85.10;;;;;;5014030;28;20026;-69
2022/08/06 00:18:42;;;;;;;1999.90;999.90;;;19.60;85.20;;;;;;5013553;28;20021;-69
2022/08/06 00:21:08;;;;;;;1999.90;999.90;;;19.50;85.30;;;;;;5013842;28;20030;-69
2022/08/06 00:23:33;;;;;;;1999.90;999.90;;;19.40;85.60;;;;;;5013644;28;20026;-69
2022/08/06 00:25:59;;;;;;;1999.90;999.90;;;19.40;85.90;;;;;;5013584;28;20374;-74
2022/08/06 00:28:26;;;;;;;1999.90;999.90;;;19.30;86.10;;;;;;5013437;28;20568;-74
2022/08/06 00:30:51;;;;;;;1999.90;999.90;;;19.30;86.20;;;;;;5013671;28;20053;-74
2022/08/06 00:33:17;;;;;;;1999.90;999.90;;;19.30;86.20;;;;;;5013589;28;20029;-70
2022/08/06 00:35:44;;;;;;;1999.90;999.90;;;19.20;86.30;;;;;;5013482;28;20109;-69
2022/08/06 00:38:10;;;;;;;1999.90;999.90;;;19.10;86.40;;;;;;5013798;28;20029;-69
2022/08/06 00:40:38;;;;;;;1999.90;999.90;;;19.10;86.60;;;;;;5013214;28;20038;-74
2022/08/06 00:43:05;;;;;;;1999.90;999.90;;;19.10;86.80;;;;;;5012869;28;20073;-74
2022/08/06 00:45:32;;;;;;;1999.90;999.90;;;19.00;86.90;;;;;;5013777;28;20072;-69
2022/08/06 00:47:58;;;;;;;1999.90;999.90;;;18.90;87.10;;;;;;5012585;28;20374;-69
2022/08/06 00:50:24;;;;;;;1999.90;999.90;;;18.90;87.30;;;;;;5013353;28;20068;-69
2022/08/06 00:52:50;;;;;;;1999.90;999.90;;;18.80;87.50;;;;;;5013073;28;20049;-74
2022/08/06 00:55:16;;;;;;;1999.90;999.90;;;18.80;87.60;;;;;;5013414;28;20436;-69
2022/08/06 00:57:41;;;;;;;1999.90;999.90;;;18.70;87.60;;;;;;5013443;28;20025;-74
2022/08/06 01:00:07;;;;;;;1999.90;999.90;;;18.70;87.80;;;;;;5013496;28;20065;-69
2022/08/06 01:02:34;;;;;;;1999.90;999.90;;;18.70;88.00;;;;;;5012584;28;20026;-74
2022/08/06 01:04:59;;;;;;;1999.90;999.90;;;18.60;88.10;;;;;;5012921;28;20034;-74
2022/08/06 01:07:25;;;;;;;1999.90;999.90;;;18.50;88.40;;;;;;5013062;28;20018;-74
2022/08/06 01:09:51;;;;;;;1999.90;999.90;;;18.50;88.40;;;;;;5013107;28;20489;-74
2022/08/06 01:12:17;;;;;;;1999.90;999.90;;;18.50;88.60;;;;;;5012464;28;20042;-69
2022/08/06 01:14:43;;;;;;;1999.90;999.90;;;18.50;88.80;;;;;;5012498;28;20029;-74
2022/08/06 01:17:27;;;;;;;1999.90;999.90;;;18.40;88.80;;;;;;5012768;28;20029;-74
2022/08/06 01:20:21;;;;;;;1999.90;999.90;;;18.40;89.00;;;;;;5013102;28;20034;-74
2022/08/06 01:23:12;;;;;;;1999.90;999.90;;;18.30;89.10;;;;;;5012715;28;20109;-74
2022/08/06 01:26:04;;;;;;;1999.90;999.90;;;18.30;89.20;;;;;;5013261;28;20069;-69
2022/08/06 01:28:36;;;;;;;1999.90;999.90;;;18.20;89.50;;;;;;5012733;28;20014;-74
2022/08/06 01:31:06;;;;;;;1999.90;999.90;;;18.20;89.70;;;;;;5013163;28;20026;-74
2022/08/06 01:33:42;;;;;;;1999.90;999.90;;;18.10;89.70;;;;;;5012990;28;20072;-74
2022/08/06 01:36:14;;;;;;;1999.90;999.90;;;18.10;90.00;;;;;;5012836;28;20029;-69
2022/08/06 01:38:44;;;;;;;1999.90;999.90;;;18.00;90.00;;;;;;5012645;28;20057;-74
2022/08/06 01:41:38;;;;;;;1999.90;999.90;;;18.00;89.90;;;;;;5012543;28;20083;-74
2022/08/06 01:44:03;;;;;;;1999.90;999.90;;;18.00;90.00;;;;;;5012707;28;20070;-74
2022/08/06 01:46:30;;;;;;;1999.90;999.90;;;17.90;90.10;;;;;;5012995;28;20029;-74
2022/08/06 01:48:57;;;;;;;1999.90;999.90;;;17.90;90.10;;;;;;5012546;28;20430;-70
2022/08/06 01:51:24;;;;;;;1999.90;999.90;;;17.80;90.00;;;;;;4993928;28;20061;-74
2022/08/06 01:53:52;;;;;;;1999.90;999.90;;;17.90;90.10;;;;;;4993180;28;20031;-74
2022/08/06 01:56:18;;;;;;;1999.90;999.90;;;17.90;90.10;;;;;;4992933;28;20030;-74
2022/08/06 01:58:47;;;;;;;1999.90;999.90;;;17.90;90.00;;;;;;4993872;28;20030;-74
2022/08/06 02:01:13;;;;;;;1999.90;999.90;;;17.80;90.10;;;;;;4995526;28;20033;-74
2022/08/06 02:03:53;;;;;;;1999.90;999.90;;;17.80;90.10;;;;;;5007365;28;20040;-69
2022/08/06 02:06:31;;;;;;;1999.90;999.90;;;17.80;90.20;;;;;;5016080;28;20396;-69
2022/08/06 02:09:00;;;;;;;1999.90;999.90;;;17.70;90.20;;;;;;5015633;28;20447;-74
2022/08/06 02:11:26;;;;;;;1999.90;999.90;;;17.70;90.40;;;;;;5015984;28;20034;-74
2022/08/06 02:13:53;;;;;;;1999.90;999.90;;;17.60;90.40;;;;;;5016416;28;20026;-74
2022/08/06 02:16:22;;;;;;;1999.90;999.90;;;17.60;90.50;;;;;;5016040;28;20101;-69
2022/08/06 02:18:51;;;;;;;1999.90;999.90;;;17.60;90.50;;;;;;5015656;28;20068;-74
2022/08/06 02:21:20;;;;;;;1999.90;999.90;;;17.50;90.40;;;;;;5016252;28;20026;-74
2022/08/06 02:23:48;;;;;;;1999.90;999.90;;;17.50;90.50;;;;;;5015844;28;20105;-69
2022/08/06 02:26:15;;;;;;;1999.90;999.90;;;17.50;90.60;;;;;;5016155;28;20040;-74
2022/08/06 02:28:43;;;;;;;1999.90;999.90;;;17.40;90.60;;;;;;5015804;28;20121;-74
2022/08/06 02:31:09;;;;;;;1999.90;999.90;;;17.40;90.60;;;;;;5015988;28;20061;-70
2022/08/06 02:33:35;;;;;;;1999.90;999.90;;;17.40;90.50;;;;;;5016032;28;20469;-74
2022/08/06 02:36:13;;;;;;;1999.90;999.90;;;17.40;90.50;;;;;;5015428;28;20490;-74
2022/08/06 02:38:45;;;;;;;1999.90;999.90;;;17.40;90.50;;;;;;5015930;28;20108;-74
2022/08/06 02:41:30;;;;;;;1999.90;999.90;;;17.40;90.50;;;;;;5015282;28;20445;-70
2022/08/06 02:44:16;;;;;;;1999.90;999.90;;;17.40;90.50;;;;;;5015744;28;20038;-69
2022/08/06 02:46:54;;;;;;;1999.90;999.90;;;17.40;90.50;;;;;;5015520;28;20030;-69
2022/08/06 02:49:24;;;;;;;1999.90;999.90;;;17.40;90.40;;;;;;5013316;28;20029;-74
2022/08/06 02:51:59;;;;;;;1999.90;999.90;;;17.40;90.30;;;;;;4995769;28;20046;-73
2022/08/06 02:54:42;;;;;;;1999.90;999.90;;;17.40;90.20;;;;;;4996012;28;20038;-69
2022/08/06 02:57:15;;;;;;;1999.90;999.90;;;17.40;90.10;;;;;;4995666;28;20018;-73
2022/08/06 02:59:45;;;;;;;1999.90;999.90;;;17.40;90.10;;;;;;4995653;28;20485;-74
2022/08/06 03:02:14;;;;;;;1999.90;999.90;;;17.40;90.10;;;;;;4995195;28;20366;-69
2022/08/06 03:04:44;;;;;;;1999.90;999.90;;;17.40;90.10;;;;;;5014049;28;20026;-74
2022/08/06 03:07:12;;;;;;;1999.90;999.90;;;17.40;90.10;;;;;;5015171;28;20029;-69
2022/08/06 03:09:44;;;;;;;1999.90;999.90;;;17.40;90.10;;;;;;5015184;28;20172;-74
2022/08/06 03:12:11;;;;;;;1999.90;999.90;;;17.40;90.10;;;;;;5014021;28;20029;-73
2022/08/06 03:14:38;;;;;;;1999.90;999.90;;;17.40;90.10;;;;;;5014635;28;20566;-74
2022/08/06 03:17:07;;;;;;;1999.90;999.90;;;17.30;90.10;;;;;;5015042;28;20477;-74
2022/08/06 03:19:34;;;;;;;1999.90;999.90;;;17.30;90.20;;;;;;5014699;28;20048;-69
2022/08/06 03:22:01;;;;;;;1999.90;999.90;;;17.30;90.20;;;;;;5014634;28;20029;-69
2022/08/06 03:24:28;;;;;;;1999.90;999.90;;;17.30;90.20;;;;;;5014877;28;20034;-69
2022/08/06 03:26:57;;;;;;;1999.90;999.90;;;17.30;90.20;;;;;;5014872;28;20498;-69
2022/08/06 03:29:25;;;;;;;1999.90;999.90;;;17.30;90.30;;;;;;5014789;28;20053;-74
2022/08/06 03:31:51;;;;;;;1999.90;999.90;;;17.20;90.30;;;;;;5014945;28;20018;-74
2022/08/06 03:34:17;;;;;;;1999.90;999.90;;;17.20;90.30;;;;;;5014457;28;20038;-69
2022/08/06 03:36:43;;;;;;;1999.90;999.90;;;17.20;90.40;;;;;;5014861;28;20034;-69
2022/08/06 03:39:11;;;;;;;1999.90;999.90;;;17.20;90.40;;;;;;5014844;28;20088;-74
2022/08/06 03:41:39;;;;;;;1999.90;999.90;;;17.20;90.40;;;;;;5014374;28;20041;-74
2022/08/06 03:44:05;;;;;;;1999.90;999.90;;;17.10;90.30;;;;;;5014701;28;20452;-74
2022/08/06 03:46:50;;;;;;;1999.90;999.90;;;17.10;90.40;;;;;;5014766;28;20030;-69
2022/08/06 03:49:44;;;;;;;1999.90;999.90;;;17.10;90.40;;;;;;5008721;28;20069;-70
2022/08/06 03:52:11;;;;;;;;;;;17.10;90.40;;;;;;4994380;28;20046;-74
2022/08/06 03:54:43;;;;;;;1999.90;999.90;;;17.00;90.50;;;;;;4994833;28;20289;-69
2022/08/06 03:57:17;;;;;;;1999.90;999.90;;;17.00;90.50;;;;;;4994343;28;20026;-69
2022/08/06 03:59:45;;;;;;;1999.90;999.90;;;17.00;90.60;;;;;;4994675;28;20072;-69
2022/08/06 04:02:12;;;;;;;1999.90;999.90;;;17.00;90.50;;;;;;4993761;28;20129;-69
2022/08/06 04:04:39;;;;;;;1999.90;999.90;;;17.00;90.50;;;;;;5012899;28;20025;-74
2022/08/06 04:07:05;;;;;;;1999.90;999.90;;;17.00;90.60;;;;;;5014149;28;20091;-69
2022/08/06 04:09:33;;;;;;;1999.90;999.90;;;16.90;90.70;;;;;;5014301;28;20018;-75
2022/08/06 04:12:00;;;;;;;1999.90;999.90;;;16.90;90.70;;;;;;5013702;28;20164;-74
2022/08/06 04:14:26;;;;;;;1999.90;999.90;;;16.90;90.80;;;;;;5014303;28;20504;-69
2022/08/06 04:16:53;;;;;;;1999.90;999.90;;;16.80;90.80;;;;;;5012960;28;20022;-69
2022/08/06 04:19:19;;;;;;;1999.90;999.90;;;16.80;90.90;;;;;;5013769;28;20026;-74
2022/08/06 04:21:46;;;;;;;1999.90;999.90;;;16.80;90.90;;;;;;5013830;28;20034;-74
2022/08/06 04:24:12;;;;;;;1999.90;999.90;;;16.70;91.00;;;;;;5013900;28;20025;-69
2022/08/06 04:26:40;;;;;;;1999.90;999.90;;;16.70;91.10;;;;;;5013857;28;20080;-69
2022/08/06 04:29:08;;;;;;;1999.90;999.90;;;16.60;91.10;;;;;;5013715;28;20029;-69
2022/08/06 04:31:35;;;;;;;1999.90;999.90;;;16.60;91.10;;;;;;5013266;28;20026;-74
2022/08/06 04:34:01;;;;;;;1999.90;999.90;;;16.60;91.20;;;;;;5013404;28;20054;-74
2022/08/06 04:36:28;;;;;;;1999.90;999.90;;;16.60;91.30;;;;;;5013606;28;20033;-70
2022/08/06 04:38:54;;;;;;;1999.90;999.90;;;16.50;91.30;;;;;;5013738;28;20076;-74
2022/08/06 04:41:21;;;;;;;1999.90;999.90;;;16.50;91.30;;;;;;5013326;28;20117;-69
2022/08/06 04:43:47;;;;;;;1999.90;999.90;;;16.50;91.50;;;;;;5013191;28;20065;-74
2022/08/06 04:46:13;;;;;;;1999.90;999.90;;;16.50;91.40;;;;;;5013592;28;20397;-69
2022/08/06 04:48:39;;;;;;;1999.90;999.90;;;16.40;91.50;;;;;;5013502;28;20033;-74
2022/08/06 04:51:06;;;;;;;1999.90;999.90;;;16.40;91.60;;;;;;4997073;28;20031;-74
2022/08/06 04:53:39;;;;;;;1999.90;999.90;;;16.40;91.70;;;;;;4993650;28;20057;-70
2022/08/06 04:56:09;;;;;;;1999.90;999.90;;;16.40;91.70;;;;;;4993884;28;20398;-74
2022/08/06 04:58:35;;;;;;;1999.90;999.90;;;16.40;91.70;;;;;;4993989;28;20181;-74
2022/08/06 05:01:01;;;;;;;1999.90;999.90;;;16.40;91.70;;;;;;4993702;28;20061;-74
2022/08/06 05:03:28;;;;;;;1999.90;999.90;;;16.40;91.70;;;;;;5001603;28;20374;-74
2022/08/06 05:06:21;;;;;;;1999.90;999.90;;;16.30;91.80;;;;;;5013216;28;20025;-69
2022/08/06 05:08:51;;;;;;;1999.90;999.90;;;16.30;91.90;;;;;;5012802;28;20049;-74
2022/08/06 05:11:24;;;;;;;1999.90;999.90;;;16.30;91.90;;;;;;5012929;28;20405;-69
2022/08/06 05:13:56;;;;;;;1999.90;999.90;;;16.30;92.00;;;;;;5013080;28;20405;-70
2022/08/06 05:16:24;;;;;;;1999.90;999.90;;;16.30;92.10;;;;;;5013111;28;20026;-70
2022/08/06 05:18:53;;;;;;;1999.90;999.90;;;16.30;92.00;;;;;;5012713;28;20030;-69
2022/08/06 05:21:23;;;;;;;1999.90;999.90;;;16.30;92.10;;;;;;5012950;28;20022;-69
2022/08/06 05:23:53;;;;;;;1999.90;999.90;;;16.30;92.10;;;;;;5012128;28;20100;-74
2022/08/06 05:26:20;;;;;;;1999.90;999.90;;;16.40;92.10;;;;;;5011635;28;20109;-74
2022/08/06 05:28:45;;;;;;;1999.90;999.90;;;16.40;92.10;;;;;;5012826;28;20037;-74
2022/08/06 05:31:11;;;;;;;1999.90;999.90;;;16.40;92.10;;;;;;5012926;28;20034;-74
2022/08/06 05:33:38;;;;;;;1999.90;999.90;;;16.50;92.10;;;;;;5013176;28;20034;-69
2022/08/06 05:36:07;;;;;;;1999.90;999.90;;;16.50;92.10;;;;;;5016562;28;20080;-74
2022/08/06 05:38:36;;;;;;;1999.90;999.90;;;16.60;92.00;;;;;;5016949;28;20029;-74
2022/08/06 05:41:02;;;;;;;1999.90;999.90;;;16.60;92.10;;;;;;5016575;28;20037;-74
2022/08/06 05:43:27;;;;;;;1999.90;999.90;;;16.60;92.00;;;;;;5016437;28;20026;-70
2022/08/06 05:46:01;;;;;;;1999.90;999.90;;;16.70;92.00;;;;;;5016864;28;20033;-74
2022/08/06 05:48:34;;;;;;;1999.90;999.90;;;16.70;92.00;;;;;;5016602;28;20057;-69
2022/08/06 05:51:02;;;;;;;;;;;16.80;91.90;;;;;;5001594;28;20521;-74
2022/08/06 05:53:35;;;;;;;1999.90;999.90;;;16.80;92.00;;;;;;4997081;28;19902;-70
2022/08/06 05:56:13;;;;;;;1999.90;999.90;;;16.80;92.00;;;;;;4997093;28;20054;-74
2022/08/06 05:58:51;;;;;;;1999.90;999.90;;;16.90;91.90;;;;;;4996882;28;20053;-69
2022/08/06 06:01:17;;;;;;;1999.90;999.90;;;17.00;91.90;;;;;;4996639;28;20042;-69
2022/08/06 06:03:43;;;;;;;1999.90;999.90;;;17.00;91.90;;;;;;5007065;28;20026;-74
2022/08/06 06:06:11;;;;;;;1999.90;999.90;;;17.10;91.90;;;;;;5016437;28;20050;-70
2022/08/06 06:08:37;;;;;;;1999.90;999.90;;;17.10;91.90;;;;;;5016181;28;20030;-74
2022/08/06 06:11:04;;;;;;;1999.90;999.90;;;17.20;91.80;;;;;;5016286;28;20033;-74
2022/08/06 06:13:31;;;;;;;1999.90;999.90;;;17.20;91.90;;;;;;5016062;28;20072;-74
2022/08/06 06:16:12;;;;;;;1999.90;999.90;;;17.30;91.80;;;;;;5016416;28;20034;-74
2022/08/06 06:18:44;;;;;;;1999.90;999.90;;;17.40;91.80;;;;;;5016057;28;20030;-74
2022/08/06 06:21:21;;;;;;;1999.90;999.90;;;17.50;91.70;;;;;;5016061;28;20105;-74
2022/08/06 06:24:19;;;;;;;1999.90;999.90;;;17.50;91.70;;;;;;5015799;28;20033;-74
2022/08/06 06:26:52;;;;;;;1999.90;999.90;;;17.60;91.60;;;;;;5007819;28;20088;-74
2022/08/06 06:29:51;;;;;;;1999.90;999.90;;;17.70;91.60;;;;;;5015696;28;20501;-74
2022/08/06 06:32:22;;;;;;;1999.90;999.90;;;17.90;91.60;;;;;;5015894;28;20029;-74
2022/08/06 06:35:17;;;;;;;1999.90;999.90;;;18.00;91.60;;;;;;5015552;28;20072;-74
2022/08/06 06:37:50;;;;;;;1999.90;999.90;;;18.00;91.50;;;;;;5015916;28;20075;-74
2022/08/06 06:40:37;;;;;;;1999.90;999.90;;;18.10;91.40;;;;;;5015940;28;20404;-74
2022/08/06 06:43:12;;;;;;;1999.90;999.90;;;18.30;91.40;;;;;;5015247;28;20034;-74
2022/08/06 06:46:10;;;;;;;1999.90;999.90;;;18.40;91.30;;;;;;5014299;28;20022;-74
2022/08/06 06:48:57;;;;;;;1999.90;999.90;;;18.50;91.20;;;;;;5013609;28;20414;-69
2022/08/06 06:51:36;;;;;;;1999.90;999.90;;;18.70;91.10;;;;;;4996953;28;20206;-69
2022/08/06 06:54:02;;;;;;;1999.90;999.90;;;18.80;91.00;;;;;;4995786;28;20022;-74
2022/08/06 06:56:35;;;;;;;1999.90;999.90;;;18.90;91.00;;;;;;4995557;28;20081;-69
2022/08/06 06:59:14;;;;;;;1999.90;999.90;;;19.00;90.90;;;;;;4996079;28;20022;-74
2022/08/06 07:01:41;;;;;;;1999.90;999.90;;;19.10;90.90;;;;;;4995927;28;20370;-74
2022/08/06 07:04:13;;;;;;;1999.90;999.90;;;19.20;90.70;;;;;;5009213;28;20033;-74
2022/08/06 07:06:40;;;;;;;1999.90;999.90;;;19.30;90.80;;;;;;5015216;28;20018;-75
2022/08/06 07:09:08;;;;;;;1999.90;999.90;;;19.40;90.70;;;;;;5015194;28;20014;-74
2022/08/06 07:11:35;;;;;;;1999.90;999.90;;;19.50;90.60;;;;;;5014912;28;20524;-69
2022/08/06 07:14:02;;;;;;;1999.90;999.90;;;19.60;90.60;;;;;;5015300;28;20033;-74
2022/08/06 07:16:30;;;;;;;1999.90;999.90;;;19.70;90.50;;;;;;5014135;28;20512;-74
2022/08/06 07:18:57;;;;;;;1999.90;999.90;;;19.80;90.50;;;;;;5014693;28;20035;-75
2022/08/06 07:21:22;;;;;;;1999.90;999.90;;;19.90;90.60;;;;;;5014851;28;20030;-74
2022/08/06 07:23:51;;;;;;;1999.90;999.90;;;20.00;90.50;;;;;;5014741;28;20030;-75
2022/08/06 07:26:21;;;;;;;1999.90;999.90;;;20.20;90.30;;;;;;5014927;28;20511;-69
2022/08/06 07:28:49;;;;;;;1999.90;999.90;;;20.30;90.20;;;;;;5014778;28;20393;-74
2022/08/06 07:31:16;;;;;;;1999.90;999.90;;;20.40;90.20;;;;;;5014959;28;20030;-69
2022/08/06 07:33:44;;;;;;;1999.90;999.90;;;20.50;90.30;;;;;;5014801;28;20401;-68
2022/08/06 07:36:11;;;;;;;1999.90;999.90;;;20.70;90.10;;;;;;5014749;28;20033;-74
2022/08/06 07:38:41;;;;;;;1999.90;999.90;;;20.90;90.00;;;;;;5014784;28;20072;-74
2022/08/06 07:41:09;;;;;;;1999.90;999.90;;;21.00;89.70;;;;;;5014299;28;20069;-75
2022/08/06 07:43:51;;;;;;;1999.90;999.90;;;21.20;89.40;;;;;;5014820;28;20120;-68
2022/08/06 07:46:20;;;;;;;1999.90;999.90;;;21.30;89.10;;;;;;5014563;28;20038;-69
2022/08/06 07:48:51;;;;;;;1999.90;999.90;;;21.40;89.00;;;;;;5014714;28;20089;-75
2022/08/06 07:51:18;;;;;;;1999.90;999.90;;;21.50;88.90;;;;;;4996406;28;20485;-69
2022/08/06 07:53:45;;;;;;;1999.90;999.90;;;21.90;88.30;;;;;;4994490;28;20031;-69
2022/08/06 07:56:11;;;;;;;1999.90;999.90;;;22.80;86.70;;;;;;4994353;28;20105;-69
2022/08/06 07:58:37;;;;;;;1999.90;999.90;;;25.70;81.30;;;;;;4994346;28;20516;-75
2022/08/06 08:01:05;;;;;;;1999.90;999.90;;;27.30;78.20;;;;;;4994143;28;20030;-75
2022/08/06 08:06:23;;;;;;;1999.90;999.90;;;29.80;74.00;;;;;;5014245;28;20029;-70
2022/08/06 08:08:55;;;;;;;1999.90;999.90;;;30.00;73.20;;;;;;5013985;28;20022;-69
2022/08/06 08:11:23;;;;;;;1999.90;999.90;;;30.40;72.80;;;;;;5013724;28;20450;-75
2022/08/06 08:13:54;;;;;;;1999.90;999.90;;;30.40;72.40;;;;;;5013679;28;20167;-75
2022/08/06 08:16:20;;;;;;;1999.90;999.90;;;30.90;72.50;;;;;;5013985;28;20026;-75
2022/08/06 08:18:47;;;;;;;1999.90;999.90;;;31.50;71.60;;;;;;5013543;28;20026;-76
2022/08/06 08:21:13;;;;;;;1999.90;999.90;;;31.80;71.10;;;;;;5014089;28;20029;-75
2022/08/06 08:23:40;;;;;;;1999.90;999.90;;;32.60;70.70;;;;;;5013839;28;20018;-69
2022/08/06 08:26:06;;;;;;;1999.90;999.90;;;32.70;70.20;;;;;;5013856;28;20053;-69
2022/08/06 08:28:32;;;;;;;1999.90;999.90;;;32.60;69.90;;;;;;5013509;28;20104;-75
2022/08/06 08:31:01;;;;;;;1999.90;999.90;;;32.40;69.80;;;;;;5013638;28;20022;-74
2022/08/06 08:33:28;;;;;;;1999.90;999.90;;;33.00;69.50;;;;;;5013642;28;20038;-68
2022/08/06 08:35:54;;;;;;;1999.90;999.90;;;33.70;69.50;;;;;;5013056;28;20465;-68
2022/08/06 08:38:19;;;;;;;1999.90;999.90;;;33.50;69.20;;;;;;5013766;28;20155;-74
2022/08/06 08:40:48;;;;;;;1999.90;999.90;;;34.20;68.90;;;;;;5013635;28;20106;-74
2022/08/06 08:43:20;;;;;;;1999.90;999.90;;;34.80;68.50;;;;;;5013203;28;20405;-73
2022/08/06 08:45:50;;;;;;;1999.90;999.90;;;34.10;68.40;;;;;;5013074;28;20030;-74
2022/08/06 08:48:20;;;;;;;1999.90;999.90;;;34.30;68.30;;;;;;5013370;28;20108;-74
2022/08/06 08:50:47;;;;;;;1999.90;999.90;;;35.00;67.90;;;;;;4999740;28;20026;-74
2022/08/06 08:53:14;;;;;;;1999.90;999.90;;;34.90;68.20;;;;;;4993513;28;20042;-74
2022/08/06 08:55:40;;;;;;;1999.90;999.90;;;34.90;67.70;;;;;;4993660;28;20039;-74
2022/08/06 08:58:07;;;;;;;1999.90;999.90;;;35.40;67.50;;;;;;4993727;28;20072;-74
2022/08/06 09:00:34;;;;;;;1999.90;999.90;;;35.20;67.20;;;;;;4993804;28;20545;-68
2022/08/06 09:03:03;;;;;;;1999.90;999.90;;;35.50;67.50;;;;;;4998832;28;20026;-68
2022/08/06 09:05:30;;;;;;;1999.90;999.90;;;35.10;67.40;;;;;;5012891;28;20080;-74
2022/08/06 09:07:57;;;;;;;1999.90;999.90;;;35.30;67.80;;;;;;5013010;28;20040;-74
2022/08/06 09:10:24;;;;;;;1999.90;999.90;;;36.00;67.30;;;;;;5012746;28;20101;-68
2022/08/06 09:12:50;;;;;;;1999.90;999.90;;;36.50;66.90;;;;;;5012990;28;20026;-68
2022/08/06 09:15:16;;;;;;;1999.90;999.90;;;36.60;66.80;;;;;;5013331;28;20033;-74
2022/08/06 09:17:42;;;;;;;1999.90;999.90;;;36.20;66.70;;;;;;5012539;28;20080;-68
2022/08/06 09:20:08;;;;;;;1999.90;999.90;;;36.40;66.80;;;;;;5013226;28;20439;-74
2022/08/06 09:22:34;;;;;;;1999.90;999.90;;;36.40;66.90;;;;;;5012616;28;20354;-68
2022/08/06 09:25:01;;;;;;;1999.90;999.90;;;36.30;66.30;;;;;;5013478;28;20026;-74
2022/08/06 09:27:35;;;;;;;1999.90;999.90;;;36.40;66.60;;;;;;5012975;28;20405;-68
2022/08/06 09:30:05;;;;;;;1999.90;999.90;;;36.60;66.90;;;;;;5013334;28;20033;-74
2022/08/06 09:32:43;;;;;;;1999.90;999.90;;;36.60;66.60;;;;;;5012790;28;20100;-68
2022/08/06 09:35:24;;;;;;;1999.90;999.90;;;36.60;67.00;;;;;;5012668;28;20074;-73
2022/08/06 09:38:03;;;;;;;1999.90;999.90;;;37.00;66.30;;;;;;5012632;28;21190;-68
2022/08/06 09:40:29;;;;;;;1999.90;999.90;;;36.40;66.30;;;;;;5012816;28;20041;-73
2022/08/06 09:42:55;;;;;;;1999.90;999.90;;;36.60;66.60;;;;;;5012546;28;20038;-74
2022/08/06 09:45:23;;;;;;;1999.90;999.90;;;36.60;66.90;;;;;;5013141;28;20030;-74
2022/08/06 09:48:00;;;;;;;1999.90;999.90;;;36.60;66.70;;;;;;5013022;28;20022;-74
2022/08/06 09:50:41;;;;;;;1999.90;999.90;;;36.20;66.50;;;;;;5001649;28;20049;-68
2022/08/06 09:53:07;;;;;;;1999.90;999.90;;;36.40;66.80;;;;;;4993124;28;20548;-69
2022/08/06 09:55:34;;;;;;;1999.90;999.90;;;36.20;66.90;;;;;;4993324;28;20053;-74
2022/08/06 09:58:00;;;;;;;1999.90;999.90;;;37.00;66.50;;;;;;4993371;28;20034;-74
2022/08/06 10:00:28;;;;;;;1999.90;999.90;;;37.40;66.20;;;;;;4993159;28;20035;-74
2022/08/06 10:03:02;;;;;;;1999.90;999.90;;;36.80;66.30;;;;;;4997325;28;20026;-74
2022/08/06 10:05:28;;;;;;;1999.90;999.90;;;36.30;66.30;;;;;;5012117;28;20018;-73
2022/08/06 10:08:14;;;;;;;1999.90;999.90;;;36.30;66.20;;;;;;5012703;28;20477;-74
2022/08/06 10:10:42;;;;;;;1999.90;999.90;;;36.70;66.30;;;;;;5012614;28;20029;-74
2022/08/06 10:13:15;;;;;;;1999.90;999.90;;;36.60;66.30;;;;;;5010789;28;20029;-74
2022/08/06 10:15:44;;;;;;;1999.90;999.90;;;36.70;66.30;;;;;;5012234;28;20038;-74
2022/08/06 10:18:11;;;;;;;1999.90;999.90;;;36.50;66.30;;;;;;5012254;28;20088;-74
2022/08/06 10:20:36;;;;;;;1999.90;999.90;;;36.50;66.10;;;;;;5013867;28;20181;-74
2022/08/06 10:23:02;;;;;;;1999.90;999.90;;;36.60;66.20;;;;;;5015967;28;20536;-74
2022/08/06 10:25:29;;;;;;;1999.90;999.90;;;36.90;66.00;;;;;;5016105;28;20485;-68
2022/08/06 10:27:56;;;;;;;1999.90;999.90;;;36.90;65.30;;;;;;5015775;28;20018;-74
2022/08/06 10:30:22;;;;;;;1999.90;999.90;;;37.10;65.90;;;;;;5015854;28;20057;-69
2022/08/06 10:33:01;;;;;;;1999.90;999.90;;;36.60;65.30;;;;;;5016356;28;20049;-68
2022/08/06 10:35:27;;;;;;;1999.90;999.90;;;36.30;66.20;;;;;;5015572;28;20034;-73
2022/08/06 10:37:58;;;;;;;1999.90;999.90;;;36.50;65.80;;;;;;5015920;28;20029;-73
2022/08/06 10:40:25;;;;;;;1999.90;999.90;;;36.00;66.00;;;;;;5015688;28;20093;-74
2022/08/06 10:42:52;;;;;;;1999.90;999.90;;;36.50;65.90;;;;;;5015403;28;20022;-68
2022/08/06 10:45:18;;;;;;;1999.90;999.90;;;36.30;65.90;;;;;;5015830;28;20093;-68
2022/08/06 10:47:46;;;;;;;1999.90;999.90;;;35.80;65.80;;;;;;5015445;28;20033;-69
2022/08/06 10:50:13;;;;;;;1999.90;999.90;;;36.30;66.50;;;;;;5006601;28;20481;-74
2022/08/06 10:52:40;;;;;;;1999.90;999.90;;;36.90;66.00;;;;;;4995796;28;20058;-68
2022/08/06 10:55:08;;;;;;;1999.90;999.90;;;36.30;65.10;;;;;;4995838;28;20034;-74
2022/08/06 10:57:34;;;;;;;1999.90;999.90;;;35.90;65.30;;;;;;4995498;28;20036;-74
2022/08/06 11:00:01;;;;;;;1999.90;999.90;;;36.50;65.90;;;;;;4995814;28;20033;-74
2022/08/06 11:02:33;;;;;;;1999.90;999.90;;;36.70;65.30;;;;;;4996044;28;20030;-69
2022/08/06 11:05:02;;;;;;;1999.90;999.90;;;36.50;65.60;;;;;;5015113;28;20481;-73
2022/08/06 11:07:52;;;;;;;1999.90;999.90;;;36.30;65.90;;;;;;5014517;28;20026;-74
2022/08/06 11:10:36;;;;;;;1999.90;999.90;;;36.60;65.80;;;;;;5015292;28;20021;-68
2022/08/06 11:13:23;;;;;;;1999.90;999.90;;;36.00;65.60;;;;;;5014924;28;20033;-74
2022/08/06 11:15:50;;;;;;;1999.90;999.90;;;35.60;66.10;;;;;;5015231;28;20083;-74
2022/08/06 11:18:17;;;;;;;1999.90;999.90;;;35.80;66.10;;;;;;5014850;28;20146;-74
2022/08/06 11:20:44;;;;;;;1999.90;999.90;;;36.40;66.10;;;;;;5014952;28;20030;-74
2022/08/06 11:23:13;;;;;;;1999.90;999.90;;;36.80;66.00;;;;;;5014604;28;20032;-68
2022/08/06 11:25:52;;;;;;;1999.90;999.90;;;36.30;66.80;;;;;;5015257;28;20018;-74
2022/08/06 11:28:40;;;;;;;1999.90;999.90;;;36.30;65.80;;;;;;5013726;28;20030;-74
2022/08/06 11:31:07;;;;;;;1999.90;999.90;;;36.10;66.20;;;;;;5011803;28;20037;-74
2022/08/06 11:33:33;;;;;;;1999.90;999.90;;;35.70;65.80;;;;;;5014398;28;20022;-74
2022/08/06 11:35:59;;;;;;;1999.90;999.90;;;35.40;66.70;;;;;;5014735;28;20029;-68
2022/08/06 11:38:49;;;;;;;1999.90;999.90;;;35.00;67.40;;;;;;5014792;28;20496;-74
2022/08/06 11:41:24;;;;;;;1999.90;999.90;;;34.60;67.60;;;;;;5014148;28;20397;-73
2022/08/06 11:43:53;;;;;;;1999.90;999.90;;;33.90;67.60;;;;;;5014412;28;20397;-74
2022/08/06 11:46:21;;;;;;;1999.90;999.90;;;33.70;68.40;;;;;;5014760;28;20022;-73
2022/08/06 11:48:59;;;;;;;1999.90;999.90;;;33.90;68.20;;;;;;5014486;28;20036;-74
2022/08/06 11:51:46;;;;;;;1999.90;999.90;;;33.60;68.20;;;;;;4995493;28;20050;-73
2022/08/06 11:54:25;;;;;;;1999.90;999.90;;;33.00;68.90;;;;;;4994825;28;20104;-68
2022/08/06 11:57:04;;;;;;;1999.90;999.90;;;33.00;69.60;;;;;;4994381;28;20026;-76
2022/08/06 11:59:32;;;;;;;1999.90;999.90;;;33.20;68.90;;;;;;4994591;28;20054;-76
2022/08/06 12:02:00;;;;;;;1999.90;999.90;;;33.00;69.10;;;;;;4994680;28;20022;-75
2022/08/06 12:04:46;;;;;;;1999.90;999.90;;;32.80;69.40;;;;;;5011028;28;20085;-75
2022/08/06 12:07:24;;;;;;;1999.90;999.90;;;32.40;69.40;;;;;;5012223;28;20029;-75
2022/08/06 12:10:05;;;;;;;1999.90;999.90;;;32.20;68.90;;;;;;5014051;28;20025;-76
2022/08/06 12:12:38;;;;;;;1999.90;999.90;;;32.60;69.30;;;;;;5013649;28;20029;-75
2022/08/06 12:15:12;;;;;;;1999.90;999.90;;;32.50;69.00;;;;;;5014187;28;20026;-75
2022/08/06 12:17:53;;;;;;;1999.90;999.90;;;32.40;69.90;;;;;;5013771;28;20465;-75
2022/08/06 12:20:34;;;;;;;1999.90;999.90;;;32.30;69.90;;;;;;5013810;28;20080;-75